Time;durP1;ratioP1;P1;durP2;ratioP2;P2;SDS_P1;SDS_P2;PMS_P1;PMS_P2;Temp;Humidity;BMP_temperature;BMP_pressure;BME280_temperature;BME280_humidity;BME280_pressure;Samples;Min_cycle;Max_cycle;Signal;HPM_P1;HPM_P2
2023/09/26 00:03:02;;;;;;;5.18;2.55;;;;;;;14.49;94.75;101201.72;8409509;28;20075;-58
2023/09/26 00:07:03;;;;;;;4.25;2.40;;;;;;;14.63;93.82;101203.97;8377478;28;20040;-57
2023/09/26 00:11:03;;;;;;;5.28;2.92;;;;;;;14.57;94.06;101209.16;8374736;28;20498;-58
2023/09/26 00:15:05;;;;;;;4.75;2.95;;;;;;;14.60;93.63;101197.97;8375003;28;20052;-58
2023/09/26 00:19:06;;;;;;;7.60;2.95;;;;;;;14.65;93.33;101210.13;8377359;28;20033;-57
2023/09/26 00:23:06;;;;;;;4.57;2.53;;;;;;;14.59;93.62;101208.00;8375586;28;20039;-58
2023/09/26 00:27:07;;;;;;;5.50;2.60;;;;;;;14.46;94.24;101201.19;8374901;28;20047;-57
2023/09/26 00:31:08;;;;;;;5.18;3.05;;;;;;;14.28;94.74;101194.81;8373172;28;20040;-58
2023/09/26 00:35:11;;;;;;;6.35;2.95;;;;;;;14.16;95.72;101199.53;8375727;28;20044;-60
2023/09/26 00:39:12;;;;;;;5.28;3.28;;;;;;;14.10;96.38;101211.00;8371217;28;20065;-57
2023/09/26 00:43:27;;;;;;;3.97;3.13;;;;;;;14.13;95.93;101209.84;8406282;28;20537;-57
2023/09/26 00:47:34;;;;;;;4.30;2.97;;;;;;;14.11;95.63;101199.09;8374809;28;20380;-58
2023/09/26 00:51:37;;;;;;;3.92;2.80;;;;;;;14.06;96.14;101200.56;8375606;28;20075;-58
2023/09/26 00:55:38;;;;;;;3.78;2.50;;;;;;;14.01;96.50;101201.00;8375969;28;20070;-58
2023/09/26 00:59:39;;;;;;;11.60;3.20;;;;;;;13.99;96.49;101191.28;8371796;28;20067;-59
2023/09/26 01:03:40;;;;;;;3.00;2.40;;;;;;;13.98;97.00;101198.56;8371972;28;20395;-57
2023/09/26 01:07:41;;;;;;;6.65;3.25;;;;;;;14.02;95.98;101190.94;8375909;28;20036;-58
2023/09/26 01:11:42;;;;;;;3.97;3.00;;;;;;;13.78;97.62;101196.84;8369853;28;20461;-58
2023/09/26 01:15:43;;;;;;;6.10;2.90;;;;;;;13.71;98.22;101188.44;8374529;28;20036;-58
2023/09/26 01:19:44;;;;;;;4.93;2.42;;;;;;;13.69;98.27;101195.00;8342319;28;20033;-59
2023/09/26 01:23:56;;;;;;;7.68;3.28;;;;;;;13.68;98.45;101182.44;8337949;28;20038;-58
2023/09/26 01:28:01;;;;;;;5.68;2.83;;;;;;;13.65;98.72;101188.16;8341542;28;20572;-61
2023/09/26 01:32:02;;;;;;;5.05;2.72;;;;;;;13.43;98.67;101189.31;8340749;28;20044;-61
2023/09/26 01:36:03;;;;;;;5.88;3.22;;;;;;;13.33;99.23;101184.88;8340480;28;20036;-61
2023/09/26 01:40:09;;;;;;;5.03;3.47;;;;;;;13.34;99.79;101179.31;8342067;28;20040;-61
2023/09/26 01:44:09;;;;;;;4.72;3.28;;;;;;;13.35;99.69;101174.69;8339053;28;20415;-61
2023/09/26 01:48:12;;;;;;;5.50;2.92;;;;;;;13.26;99.63;101179.13;8342075;28;20120;-61
2023/09/26 01:52:13;;;;;;;5.32;3.03;;;;;;;13.12;100.00;101178.69;8339811;28;20033;-61
2023/09/26 01:56:13;;;;;;;5.80;2.83;;;;;;;13.08;100.00;101171.81;8339943;28;20041;-61
2023/09/26 02:00:17;;;;;;;6.47;3.50;;;;;;;12.95;100.00;101171.19;8331364;28;20041;-62
2023/09/26 02:04:17;;;;;;;6.22;3.63;;;;;;;12.87;100.00;101168.34;8377017;28;20048;-62
2023/09/26 02:08:18;;;;;;;5.05;3.55;;;;;;;12.80;100.00;101168.03;8332509;28;20037;-62
2023/09/26 02:12:19;;;;;;;4.15;2.97;;;;;;;12.82;100.00;101167.88;8371513;28;20040;-63
2023/09/26 02:16:19;;;;;;;4.55;3.33;;;;;;;12.91;100.00;101167.06;8337608;28;20038;-63
2023/09/26 02:20:20;;;;;;;7.68;3.63;;;;;;;12.78;100.00;101163.75;8341180;28;20040;-62
2023/09/26 02:24:20;;;;;;;5.03;3.30;;;;;;;12.80;100.00;101151.75;8338094;28;20041;-62
2023/09/26 02:28:22;;;;;;;5.95;3.28;;;;;;;12.90;100.00;101158.03;8338536;28;20035;-62
2023/09/26 02:32:23;;;;;;;5.32;3.65;;;;;;;12.89;100.00;101144.59;8335941;28;20037;-62
2023/09/26 02:36:23;;;;;;;8.20;3.30;;;;;;;12.88;100.00;101148.34;8341021;28;20079;-62
2023/09/26 02:40:23;;;;;;;4.95;3.72;;;;;;;12.82;100.00;101148.88;8339949;28;20033;-62
2023/09/26 02:44:24;;;;;;;3.75;2.95;;;;;;;12.73;100.00;101150.59;8338415;28;20128;-62
2023/09/26 02:48:24;;;;;;;6.10;3.00;;;;;;;12.65;100.00;101152.25;8341386;28;20040;-62
2023/09/26 02:52:25;;;;;;;4.28;2.92;;;;;;;12.63;100.00;101149.69;8338705;28;20036;-63
2023/09/26 02:56:25;;;;;;;7.32;3.45;;;;;;;12.59;100.00;101142.00;8339303;28;20033;-62
2023/09/26 03:00:26;;;;;;;6.25;3.83;;;;;;;12.57;100.00;101144.84;8339584;28;20037;-62
2023/09/26 03:04:26;;;;;;;5.10;3.42;;;;;;;12.49;100.00;101141.06;8336644;28;20045;-62
2023/09/26 03:08:28;;;;;;;4.32;3.10;;;;;;;12.46;100.00;101141.34;8350752;28;20095;-62
2023/09/26 03:12:28;;;;;;;6.75;3.35;;;;;;;12.47;100.00;101143.09;8354245;28;20040;-62
2023/09/26 03:16:29;;;;;;;4.75;3.40;;;;;;;12.44;100.00;101140.66;8345364;28;20037;-62
2023/09/26 03:20:29;;;;;;;4.65;3.10;;;;;;;12.45;100.00;101142.34;8345683;28;20042;-62
2023/09/26 03:24:30;;;;;;;4.28;3.45;;;;;;;12.42;100.00;101140.78;8340333;28;20037;-62
2023/09/26 03:28:30;;;;;;;8.18;3.97;;;;;;;12.36;100.00;101135.91;8342436;28;20377;-62
2023/09/26 03:32:31;;;;;;;4.18;3.55;;;;;;;12.37;100.00;101131.31;8342143;28;20487;-63
2023/09/26 03:36:32;;;;;;;6.40;3.92;;;;;;;12.28;100.00;101124.00;8344827;28;20088;-62
2023/09/26 03:40:33;;;;;;;5.97;3.30;;;;;;;12.31;100.00;101130.03;8343870;28;20443;-62
2023/09/26 03:44:33;;;;;;;4.25;3.22;;;;;;;12.29;100.00;101121.16;8341834;28;20112;-62
2023/09/26 03:48:35;;;;;;;3.40;2.72;;;;;;;12.49;100.00;101116.66;8331610;28;20033;-59
2023/09/26 03:52:35;;;;;;;5.32;3.50;;;;;;;12.51;100.00;101118.28;8343254;28;20663;-59
2023/09/26 03:56:36;;;;;;;4.82;3.33;;;;;;;12.51;100.00;101128.25;8343219;28;20076;-60
2023/09/26 04:00:36;;;;;;;5.50;3.83;;;;;;;12.42;100.00;101129.06;8337160;28;20063;-60
2023/09/26 04:04:37;;;;;;;6.60;3.83;;;;;;;12.31;100.00;101126.44;8315099;28;20163;-59
2023/09/26 04:08:38;;;;;;;5.95;3.55;;;;;;;12.25;100.00;101127.00;8345439;28;20451;-59
2023/09/26 04:12:39;;;;;;;4.78;3.78;;;;;;;12.21;100.00;101136.41;8356019;28;20080;-61
2023/09/26 04:16:39;;;;;;;5.90;3.35;;;;;;;12.17;100.00;101134.97;8342523;28;20037;-59
2023/09/26 04:20:40;;;;;;;6.35;3.70;;;;;;;12.17;100.00;101134.97;8338371;28;20575;-59
2023/09/26 04:24:40;;;;;;;4.55;3.40;;;;;;;12.22;100.00;101132.69;8319797;28;20075;-60
2023/09/26 04:28:42;;;;;;;5.95;3.47;;;;;;;12.26;100.00;101129.56;8378478;28;20494;-59
2023/09/26 04:32:43;;;;;;;6.63;3.55;;;;;;;12.24;100.00;101125.28;8347523;28;20059;-59
2023/09/26 04:36:43;;;;;;;4.22;3.58;;;;;;;12.13;100.00;101117.28;8344432;28;20044;-59
2023/09/26 04:40:44;;;;;;;7.32;3.53;;;;;;;12.03;100.00;101113.63;8336010;28;20309;-61
2023/09/26 04:44:44;;;;;;;7.57;3.92;;;;;;;11.92;100.00;101114.56;8285876;28;20401;-61
2023/09/26 04:48:45;;;;;;;5.97;3.58;;;;;;;11.93;100.00;101111.72;8288761;28;20040;-61
2023/09/26 04:52:45;;;;;;;6.72;3.78;;;;;;;11.98;100.00;101114.03;8305002;28;20506;-59
2023/09/26 04:56:46;;;;;;;7.18;3.63;;;;;;;11.93;100.00;101115.44;8315548;28;20048;-62
2023/09/26 05:00:47;;;;;;;8.10;4.13;;;;;;;11.92;100.00;101114.56;8344360;28;20049;-61
2023/09/26 05:04:48;;;;;;;4.90;3.63;;;;;;;11.96;100.00;101109.75;8356400;28;20095;-61
2023/09/26 05:08:50;;;;;;;11.18;3.90;;;;;;;11.97;100.00;101119.59;8344337;28;20106;-58
2023/09/26 05:12:50;;;;;;;6.57;4.10;;;;;;;11.92;100.00;101109.16;8336126;28;20060;-59
2023/09/26 05:16:51;;;;;;;5.45;3.75;;;;;;;11.86;100.00;101110.56;8419921;27;20514;-61
2023/09/26 05:20:51;;;;;;;7.55;4.20;;;;;;;11.89;100.00;101121.13;8405023;27;20032;-61
2023/09/26 05:24:52;;;;;;;7.57;3.70;;;;;;;11.90;100.00;101109.28;8402674;27;20045;-61
2023/09/26 05:28:52;;;;;;;4.93;3.95;;;;;;;11.86;100.00;101113.28;8402756;27;20037;-58
2023/09/26 05:32:53;;;;;;;5.28;3.83;;;;;;;11.88;100.00;101119.44;8417743;27;20031;-59
2023/09/26 05:36:53;;;;;;;6.75;3.95;;;;;;;11.92;100.00;101113.75;8423297;27;20397;-59
2023/09/26 05:40:54;;;;;;;12.52;4.07;;;;;;;12.33;100.00;101119.06;8402681;27;20548;-61
2023/09/26 05:44:55;;;;;;;6.30;4.38;;;;;;;12.07;100.00;101123.22;8397658;27;20040;-60
2023/09/26 05:48:56;;;;;;;7.53;4.10;;;;;;;11.97;100.00;101116.88;8401858;27;20118;-58
2023/09/26 05:52:56;;;;;;;5.97;4.10;;;;;;;12.01;100.00;101112.94;8401217;27;20074;-59
2023/09/26 05:56:57;;;;;;;10.10;4.20;;;;;;;12.13;100.00;101109.13;8406535;27;20044;-59
2023/09/26 06:01:05;;;;;;;8.32;4.03;;;;;;;12.28;100.00;101113.16;8404157;27;20047;-58
2023/09/26 06:05:06;;;;;;;10.70;5.07;;;;;;;12.40;100.00;101109.34;8407227;27;20035;-59
2023/09/26 06:09:07;;;;;;;7.18;3.78;;;;;;;12.55;99.76;101103.44;8405665;27;20076;-59
2023/09/26 06:13:07;;;;;;;10.07;3.88;;;;;;;12.67;99.06;101104.16;8408105;27;20043;-58
2023/09/26 06:17:08;;;;;;;10.52;4.55;;;;;;;12.80;98.36;101102.03;8405947;27;20047;-59
2023/09/26 06:21:08;;;;;;;5.13;3.90;;;;;;;12.79;99.17;101105.75;8403201;27;20489;-60
2023/09/26 06:25:09;;;;;;;6.35;3.92;;;;;;;12.97;98.73;101095.94;8406478;27;20036;-60
2023/09/26 06:29:09;;;;;;;7.38;3.60;;;;;;;13.19;98.19;101098.38;8404001;27;20071;-59
2023/09/26 06:33:10;;;;;;;6.45;3.55;;;;;;;13.35;96.87;101095.94;8404029;27;20032;-59
2023/09/26 06:37:10;;;;;;;6.22;3.83;;;;;;;13.51;96.31;101098.94;8405800;27;20071;-59
2023/09/26 06:41:11;;;;;;;8.05;3.33;;;;;;;13.69;95.04;101108.91;8411238;27;20106;-59
2023/09/26 06:45:12;;;;;;;5.15;3.03;;;;;;;14.04;93.82;101100.09;8413778;27;20047;-59
2023/09/26 06:49:13;;;;;;;5.60;3.38;;;;;;;14.30;92.15;101103.03;8413267;27;20059;-59
2023/09/26 06:53:13;;;;;;;5.78;3.95;;;;;;;14.37;92.92;101104.13;8411245;27;20041;-59
2023/09/26 06:57:17;;;;;;;8.68;3.50;;;;;;;14.84;90.11;101098.41;8413810;27;20068;-59
2023/09/26 07:01:18;;;;;;;7.30;3.42;;;;;;;14.75;90.38;101099.34;8404307;27;20044;-58
2023/09/26 07:05:18;;;;;;;7.20;3.45;;;;;;;14.97;89.90;101095.28;8406142;27;20131;-59
2023/09/26 07:09:20;;;;;;;8.88;3.63;;;;;;;15.05;89.16;101090.81;8407822;27;20460;-60
2023/09/26 07:13:20;;;;;;;5.28;3.42;;;;;;;15.21;88.73;101090.97;8406960;27;20040;-59
2023/09/26 07:17:21;;;;;;;10.73;3.60;;;;;;;15.35;89.03;101087.69;8409277;27;20120;-59
2023/09/26 07:21:21;;;;;;;8.40;3.75;;;;;;;15.49;88.84;101100.78;8440240;27;20471;-59
2023/09/26 07:25:22;;;;;;;6.80;3.90;;;;;;;15.51;88.59;101103.34;8406950;27;20048;-59
2023/09/26 07:29:23;;;;;;;7.47;3.35;;;;;;;16.06;88.41;101099.31;8405841;27;20459;-62
2023/09/26 07:33:23;;;;;;;5.78;3.47;;;;;;;16.41;86.29;101088.22;8406349;27;20417;-62
2023/09/26 07:37:24;;;;;;;4.50;3.47;;;;;;;16.66;84.42;101089.22;8407910;27;20040;-63
2023/09/26 07:41:25;;;;;;;12.40;3.63;;;;;;;16.74;85.00;101089.25;8440831;27;20114;-62
2023/09/26 07:45:25;;;;;;;5.68;3.22;;;;;;;16.78;83.87;101093.34;8406611;27;20082;-63
2023/09/26 07:49:26;;;;;;;6.25;3.65;;;;;;;16.95;83.94;101089.63;8406988;27;20494;-63
2023/09/26 07:53:26;;;;;;;6.80;3.20;;;;;;;17.19;83.67;101084.19;8407371;27;20513;-63
2023/09/26 07:57:27;;;;;;;5.00;2.95;;;;;;;17.73;81.40;101078.09;8406021;27;20037;-62
2023/09/26 08:01:27;;;;;;;3.70;2.80;;;;;;;18.25;80.01;101083.94;8403240;27;20177;-63
2023/09/26 08:05:28;;;;;;;4.13;2.70;;;;;;;18.38;80.04;101076.91;8407310;27;20619;-63
2023/09/26 08:09:29;;;;;;;4.38;2.88;;;;;;;18.55;79.55;101086.78;8407547;27;20040;-59
2023/09/26 08:13:29;;;;;;;6.07;2.67;;;;;;;18.79;77.63;101078.41;8405031;27;20545;-59
2023/09/26 08:17:30;;;;;;;4.18;2.40;;;;;;;19.04;75.10;101081.88;8440486;27;20036;-59
2023/09/26 08:21:30;;;;;;;5.63;2.97;;;;;;;19.26;76.20;101075.53;8405969;27;20032;-60
2023/09/26 08:25:32;;;;;;;6.10;2.78;;;;;;;19.18;76.22;101073.72;8403133;27;20044;-60
2023/09/26 08:29:33;;;;;;;7.32;2.70;;;;;;;19.37;76.71;101081.47;8407414;27;20036;-63
2023/09/26 08:33:34;;;;;;;3.53;2.45;;;;;;;19.43;74.89;101083.47;8403619;27;20039;-63
2023/09/26 08:37:35;;;;;;;6.13;2.60;;;;;;;19.84;74.99;101085.84;8407723;27;20078;-63
2023/09/26 08:41:36;;;;;;;6.25;2.70;;;;;;;19.94;73.86;101081.81;8406602;27;20047;-62
2023/09/26 08:45:37;;;;;;;5.93;2.83;;;;;;;20.16;74.76;101080.06;8407116;27;20124;-62
2023/09/26 08:49:40;;;;;;;7.70;2.58;;;;;;;20.42;74.50;101080.44;8403485;27;20066;-62
2023/09/26 08:53:41;;;;;;;5.25;3.17;;;;;;;20.74;74.46;101074.53;8405363;27;20042;-62
2023/09/26 08:57:43;;;;;;;6.18;2.67;;;;;;;20.68;73.79;101075.31;8405753;27;20032;-60
2023/09/26 09:01:43;;;;;;;10.45;2.55;;;;;;;21.05;72.18;101062.22;8399926;27;20043;-62
2023/09/26 09:05:44;;;;;;;6.63;2.47;;;;;;;21.19;72.32;101041.22;8436308;27;20040;-62
2023/09/26 09:14:31;;;;;;;4.00;1.85;;;;;;;23.02;66.72;101044.16;8347837;27;20516;-59
2023/09/26 09:18:31;;;;;;;3.83;2.00;;;;;;;24.82;62.13;101033.38;8349097;28;20033;-59
2023/09/26 09:22:32;;;;;;;3.10;1.60;;;;;;;25.89;57.41;101034.97;8348105;28;20431;-58
2023/09/26 09:26:35;;;;;;;4.65;1.75;;;;;;;26.70;55.64;101025.38;8348163;28;20086;-58
2023/09/26 09:30:38;;;;;;;5.18;1.83;;;;;;;27.35;54.39;101025.56;8348331;28;20084;-59
2023/09/26 09:34:38;;;;;;;5.15;1.30;;;;;;;27.54;54.33;101022.44;8347617;28;20061;-60
2023/09/26 09:38:39;;;;;;;4.38;1.50;;;;;;;27.64;53.81;101030.19;8348467;28;20044;-60
2023/09/26 09:42:40;;;;;;;3.55;1.35;;;;;;;28.51;52.71;101030.94;8347521;28;20457;-58
2023/09/26 09:46:43;;;;;;;2.15;1.40;;;;;;;28.93;51.43;101025.97;8348222;28;20041;-59
2023/09/26 09:50:46;;;;;;;4.50;1.63;;;;;;;28.68;50.85;101025.47;8344375;28;20392;-58
2023/09/26 09:54:50;;;;;;;2.80;1.50;;;;;;;28.36;51.69;101015.84;8347037;28;20045;-59
2023/09/26 09:58:52;;;;;;;;;;;;;;;28.82;50.56;101021.31;8348088;28;20120;-59
2023/09/26 10:02:57;;;;;;;3.22;1.63;;;;;;;29.55;51.01;101022.16;8347336;28;19924;-59
2023/09/26 10:06:59;;;;;;;3.22;1.30;;;;;;;29.92;48.86;101008.59;8347392;28;20040;-59
2023/09/26 10:11:03;;;;;;;3.80;1.52;;;;;;;29.81;49.92;101006.75;8346931;28;20033;-62
2023/09/26 10:15:10;;;;;;;2.80;1.50;;;;;;;30.15;49.25;101012.03;8343512;28;20077;-62
2023/09/26 10:19:11;;;;;;;4.03;1.83;;;;;;;29.84;48.80;101009.88;8347306;28;20044;-62
2023/09/26 10:23:12;;;;;;;2.85;1.45;;;;;;;30.32;48.92;101007.28;8328926;28;20473;-62
2023/09/26 10:27:12;;;;;;;2.13;1.30;;;;;;;30.82;47.90;101000.66;8324715;28;20110;-62
2023/09/26 10:31:12;;;;;;;4.10;1.77;;;;;;;31.05;45.77;100997.59;8324234;28;20045;-62
2023/09/26 10:39:43;;;;;;;3.28;1.33;;;;;;;30.78;47.60;100992.00;8302671;28;20968;-63
2023/09/26 10:43:44;;;;;;;4.97;1.60;;;;;;;31.68;46.41;100978.94;8298772;28;20038;-62
2023/09/26 10:47:44;;;;;;;3.28;1.27;;;;;;;32.12;44.32;100973.97;8300811;28;20091;-62
2023/09/26 10:51:45;;;;;;;4.43;1.38;;;;;;;31.99;44.87;100980.03;8300491;28;20056;-62
2023/09/26 10:55:46;;;;;;;2.33;1.13;;;;;;;31.24;46.28;100983.00;8298652;28;20688;-62
2023/09/26 10:59:48;;;;;;;1.70;1.30;;;;;;;31.17;45.18;100978.72;8296336;28;20319;-62
2023/09/26 11:03:48;;;;;;;1.98;1.15;;;;;;;30.83;45.65;100980.03;8297258;28;20042;-62
2023/09/26 11:07:54;;;;;;;4.05;1.60;;;;;;;29.42;49.46;100972.34;8297590;28;20052;-63
2023/09/26 11:11:56;;;;;;;3.03;1.65;;;;;;;29.24;49.31;100975.34;8299187;28;20060;-63
2023/09/26 11:15:57;;;;;;;5.28;1.52;;;;;;;31.57;46.86;100970.72;8298860;28;20447;-62
2023/09/26 11:19:59;;;;;;;4.28;1.35;;;;;;;31.64;45.97;100972.19;8297739;28;20113;-63
2023/09/26 11:23:59;;;;;;;5.88;1.33;;;;;;;31.97;44.68;100968.25;8296408;28;20053;-62
2023/09/26 11:28:01;;;;;;;2.47;1.30;;;;;;;31.64;46.63;100960.16;8299000;28;20037;-62
2023/09/26 11:32:03;;;;;;;3.33;1.38;;;;;;;32.37;44.17;100960.13;8295736;28;20503;-62
2023/09/26 11:36:04;;;;;;;3.40;1.42;;;;;;;32.68;43.98;100956.31;8298912;28;22963;-62
2023/09/26 11:40:11;;;;;;;4.28;1.30;;;;;;;32.11;44.89;100947.09;8296890;28;20510;-62
2023/09/26 11:44:14;;;;;;;3.10;1.20;;;;;;;32.15;46.50;100939.81;8296133;28;20531;-63
2023/09/26 11:48:14;;;;;;;2.95;1.52;;;;;;;32.01;44.03;100941.41;8288167;28;20038;-62
2023/09/26 11:52:16;;;;;;;2.17;1.10;;;;;;;31.53;45.50;100941.63;8276235;28;20080;-62
2023/09/26 11:56:16;;;;;;;3.97;1.40;;;;;;;31.00;46.70;100941.66;8275969;28;20038;-62
2023/09/26 12:00:19;;;;;;;2.90;1.35;;;;;;;31.29;45.98;100935.53;8273471;28;20046;-63
2023/09/26 12:04:21;;;;;;;2.95;1.70;;;;;;;32.20;45.89;100942.66;8276261;28;20042;-62
2023/09/26 12:08:22;;;;;;;1.88;1.25;;;;;;;32.83;44.57;100933.94;8276405;28;20044;-62
2023/09/26 12:12:22;;;;;;;3.53;1.05;;;;;;;32.56;45.23;100924.91;8275258;28;20042;-62
2023/09/26 12:16:23;;;;;;;2.88;1.35;;;;;;;32.08;45.80;100928.03;8274297;28;20096;-63
2023/09/26 12:20:24;;;;;;;3.17;1.20;;;;;;;31.97;45.12;100929.09;8276424;28;20041;-63
2023/09/26 12:24:25;;;;;;;2.83;1.20;;;;;;;31.67;46.11;100910.13;8272575;28;20094;-62
2023/09/26 12:28:25;;;;;;;3.35;1.40;;;;;;;31.12;46.29;100917.19;8273970;28;20121;-63
2023/09/26 12:32:26;;;;;;;6.40;1.23;;;;;;;30.21;46.99;100918.94;8271835;28;20069;-62
2023/09/26 12:36:26;;;;;;;2.22;1.10;;;;;;;30.31;47.35;100924.66;8278955;28;20041;-63
2023/09/26 12:40:27;;;;;;;1.77;1.20;;;;;;;30.17;47.69;100914.97;8270532;28;20049;-63
2023/09/26 12:44:28;;;;;;;2.67;1.60;;;;;;;29.26;48.85;100899.88;8273175;28;20042;-62
2023/09/26 12:48:28;;;;;;;3.25;1.20;;;;;;;28.47;50.38;100900.91;8271766;28;20050;-59
2023/09/26 12:52:29;;;;;;;4.03;1.40;;;;;;;28.07;51.68;100892.56;8272919;28;20046;-60
2023/09/26 12:56:29;;;;;;;2.85;1.27;;;;;;;27.89;51.63;100898.25;8272185;28;20085;-60
2023/09/26 13:00:30;;;;;;;1.92;1.02;;;;;;;27.63;52.64;100897.91;8269914;28;20185;-59
2023/09/26 13:04:31;;;;;;;2.92;1.20;;;;;;;27.74;53.46;100899.81;8271627;28;20037;-60
2023/09/26 13:08:32;;;;;;;3.25;1.13;;;;;;;27.51;53.64;100888.72;8268344;28;20081;-60
2023/09/26 13:12:34;;;;;;;3.97;1.83;;;;;;;27.89;52.01;100891.84;8271321;28;20052;-60
2023/09/26 13:16:35;;;;;;;2.28;1.35;;;;;;;27.86;54.29;100889.56;8273266;28;20272;-59
2023/09/26 13:20:36;;;;;;;3.15;1.10;;;;;;;27.57;53.50;100887.75;8273865;28;20268;-61
2023/09/26 13:24:36;;;;;;;2.97;1.27;;;;;;;27.36;53.02;100893.91;8278319;28;20037;-59
2023/09/26 13:28:37;;;;;;;4.55;1.42;;;;;;;27.44;53.56;100883.28;8277919;28;20053;-60
2023/09/26 13:32:37;;;;;;;2.65;1.60;;;;;;;27.42;52.93;100879.91;8271449;28;20034;-60
2023/09/26 13:36:38;;;;;;;5.88;1.20;;;;;;;27.43;53.87;100875.19;8265649;28;20049;-60
2023/09/26 13:40:40;;;;;;;2.58;1.30;;;;;;;27.35;55.13;100878.34;8270628;28;20049;-59
2023/09/26 13:44:40;;;;;;;3.38;1.75;;;;;;;27.50;53.39;100871.19;8267980;28;20101;-57
2023/09/26 13:48:41;;;;;;;2.80;1.30;;;;;;;27.28;53.93;100872.91;8269474;28;20046;-60
2023/09/26 13:52:41;;;;;;;3.90;1.40;;;;;;;27.48;53.90;100872.53;8274082;28;20077;-59
2023/09/26 13:56:41;;;;;;;4.07;1.50;;;;;;;27.35;55.44;100872.78;8267481;28;20366;-60
2023/09/26 14:00:42;;;;;;;2.15;1.80;;;;;;;27.35;54.98;100875.56;8269977;28;20513;-63
2023/09/26 14:04:42;;;;;;;3.97;1.42;;;;;;;27.29;55.90;100876.53;8272050;28;20053;-62
2023/09/26 14:08:43;;;;;;;2.17;1.15;;;;;;;27.30;55.26;100870.72;8286316;28;20526;-62
2023/09/26 14:12:44;;;;;;;8.00;1.58;;;;;;;27.26;56.31;100868.69;8267394;28;20049;-62
2023/09/26 14:16:46;;;;;;;1.75;1.20;;;;;;;27.17;55.83;100870.91;8269000;28;20050;-65
2023/09/26 14:20:49;;;;;;;2.55;1.70;;;;;;;27.20;55.67;100864.06;8268311;28;20132;-63
2023/09/26 14:24:49;;;;;;;7.63;2.05;;;;;;;27.17;57.36;100864.53;8267840;28;20062;-63
2023/09/26 14:28:52;;;;;;;4.15;1.80;;;;;;;27.01;56.98;100859.69;8267748;28;20503;-64
2023/09/26 14:32:53;;;;;;;4.25;1.67;;;;;;;26.81;56.20;100852.50;8267711;28;20034;-63
2023/09/26 14:36:53;;;;;;;3.50;1.70;;;;;;;26.83;56.83;100853.13;8272031;28;20057;-64
2023/09/26 14:40:54;;;;;;;3.15;1.85;;;;;;;26.81;56.46;100855.28;8271244;28;20733;-65
2023/09/26 14:44:55;;;;;;;5.63;1.40;;;;;;;26.80;57.83;100861.06;8273237;28;20046;-64
2023/09/26 14:48:55;;;;;;;2.33;1.42;;;;;;;26.75;57.38;100863.75;8274365;28;20108;-64
2023/09/26 14:52:56;;;;;;;2.85;2.10;;;;;;;26.68;57.53;100855.50;8268883;28;20044;-63
2023/09/26 14:56:56;;;;;;;4.53;1.40;;;;;;;26.69;58.04;100859.97;8271907;28;20042;-64
2023/09/26 15:00:57;;;;;;;2.47;1.50;;;;;;;26.64;57.45;100862.63;8270381;28;20134;-64
2023/09/26 15:04:57;;;;;;;2.03;1.23;;;;;;;26.66;57.80;100868.75;8267749;28;20030;-65
2023/09/26 15:08:58;;;;;;;2.10;1.38;;;;;;;26.54;58.13;100875.34;8267631;28;20104;-62
2023/09/26 15:12:58;;;;;;;4.05;1.73;;;;;;;26.48;57.73;100881.81;8267708;28;20107;-62
2023/09/26 15:16:59;;;;;;;6.22;1.67;;;;;;;26.39;57.27;100884.09;8266204;28;20411;-62
2023/09/26 15:21:01;;;;;;;5.13;1.50;;;;;;;26.42;57.99;100878.06;8261081;28;20088;-63
2023/09/26 15:25:01;;;;;;;4.32;1.58;;;;;;;26.42;58.60;100883.63;8264058;28;20084;-62
2023/09/26 15:29:02;;;;;;;4.93;1.42;;;;;;;26.36;59.69;100878.16;8279054;28;20038;-62
2023/09/26 15:33:03;;;;;;;2.70;1.23;;;;;;;26.28;59.69;100876.56;8274342;28;20046;-62
2023/09/26 15:37:03;;;;;;;4.93;1.73;;;;;;;26.24;59.00;100880.88;8272731;28;20046;-62
2023/09/26 15:41:15;;;;;;;1.42;1.20;;;;;;;26.13;59.14;100873.34;8274687;28;20050;-62
2023/09/26 15:45:18;;;;;;;4.85;1.75;;;;;;;26.03;59.92;100877.75;8275622;28;20354;-62
2023/09/26 15:49:19;;;;;;;3.13;1.83;;;;;;;25.94;59.82;100866.09;8273037;28;20116;-62
2023/09/26 15:53:21;;;;;;;2.80;1.45;;;;;;;25.84;60.68;100862.16;8266873;28;20041;-62
2023/09/26 15:57:21;;;;;;;3.38;1.45;;;;;;;25.75;61.00;100856.09;8268231;28;20033;-62
2023/09/26 16:01:22;;;;;;;4.93;1.70;;;;;;;25.67;62.39;100861.94;8269566;28;20121;-62
2023/09/26 16:05:22;;;;;;;5.68;1.80;;;;;;;25.61;61.94;100850.94;8263276;28;20042;-63
2023/09/26 16:09:23;;;;;;;1.58;1.27;;;;;;;25.49;63.33;100850.84;8256795;28;20066;-63
2023/09/26 16:13:24;;;;;;;4.72;2.72;;;;;;;25.34;63.39;100853.13;8269113;28;20422;-63
2023/09/26 16:17:24;;;;;;;3.95;1.45;;;;;;;25.30;63.27;100849.09;8287523;28;20065;-63
2023/09/26 16:21:25;;;;;;;3.60;1.45;;;;;;;25.22;63.75;100854.91;8265697;28;20050;-65
2023/09/26 16:25:25;;;;;;;8.35;1.40;;;;;;;25.14;63.96;100855.22;8261792;28;20457;-65
2023/09/26 16:29:26;;;;;;;5.05;1.50;;;;;;;25.06;64.94;100869.34;8267751;28;20038;-64
2023/09/26 16:33:27;;;;;;;2.28;1.50;;;;;;;24.95;65.39;100856.25;8262660;28;20033;-65
2023/09/26 16:37:28;;;;;;;6.35;2.15;;;;;;;24.75;66.52;100855.56;8261745;28;20046;-65
2023/09/26 16:41:28;;;;;;;3.55;1.38;;;;;;;24.62;67.81;100866.69;8255720;28;20205;-64
2023/09/26 16:45:29;;;;;;;3.28;1.63;;;;;;;24.46;68.70;100867.22;8262930;28;20097;-65
2023/09/26 16:49:29;;;;;;;3.92;1.98;;;;;;;24.30;69.10;100863.03;8261089;28;20053;-64
2023/09/26 16:53:30;;;;;;;6.38;1.70;;;;;;;24.20;69.78;100861.81;8274853;28;20050;-65
2023/09/26 16:57:30;;;;;;;6.32;2.42;;;;;;;24.06;70.52;100861.03;8265735;28;20426;-64
2023/09/26 17:01:31;;;;;;;10.52;2.28;;;;;;;23.97;70.27;100861.53;8258321;28;20088;-65
2023/09/26 17:05:35;;;;;;;3.63;1.98;;;;;;;23.94;70.71;100861.94;8262978;28;20701;-65
2023/09/26 17:09:35;;;;;;;6.47;1.90;;;;;;;23.84;71.63;100861.53;8264099;28;20065;-65
2023/09/26 17:13:36;;;;;;;4.78;2.10;;;;;;;23.75;71.82;100865.63;8264705;28;20235;-65
2023/09/26 17:17:38;;;;;;;3.83;1.70;;;;;;;23.60;72.68;100873.31;8270212;28;20049;-65
2023/09/26 17:21:40;;;;;;;2.25;1.75;;;;;;;23.36;74.38;100871.22;8265122;28;20120;-64
2023/09/26 17:25:41;;;;;;;2.53;1.63;;;;;;;23.18;74.77;100861.66;8264925;28;20368;-64
2023/09/26 17:29:41;;;;;;;2.95;2.10;;;;;;;23.10;75.36;100859.13;8267217;28;20053;-63
2023/09/26 17:33:42;;;;;;;3.25;2.08;;;;;;;23.06;75.88;100871.63;8265295;28;20065;-63
2023/09/26 17:37:42;;;;;;;5.85;2.30;;;;;;;23.11;75.69;100865.47;8272664;28;20057;-63
2023/09/26 17:41:43;;;;;;;3.95;2.17;;;;;;;22.99;76.02;100868.03;8268316;28;20118;-63
2023/09/26 17:45:43;;;;;;;3.50;2.00;;;;;;;22.91;76.38;100865.47;8268306;28;20050;-63
2023/09/26 17:49:44;;;;;;;4.32;2.30;;;;;;;22.74;76.94;100855.94;8269862;28;20042;-63
2023/09/26 17:53:44;;;;;;;5.05;2.70;;;;;;;22.80;75.80;100852.34;8265578;28;20069;-63
2023/09/26 17:57:45;;;;;;;9.98;2.95;;;;;;;22.90;75.47;100868.44;8268378;28;20392;-63
2023/09/26 18:01:45;;;;;;;5.78;3.10;;;;;;;22.79;75.88;100867.19;8276549;28;20559;-64
2023/09/26 18:05:46;;;;;;;5.00;2.72;;;;;;;22.60;76.30;100873.50;8265574;28;20104;-63
2023/09/26 18:09:46;;;;;;;4.53;2.67;;;;;;;22.36;77.17;100873.25;8269046;28;20041;-63
2023/09/26 18:13:47;;;;;;;9.57;2.95;;;;;;;22.18;78.37;100879.34;8266147;28;20062;-63
2023/09/26 18:17:48;;;;;;;5.00;2.85;;;;;;;21.98;79.46;100883.91;8266663;28;20070;-63
2023/09/26 18:21:48;;;;;;;6.50;2.78;;;;;;;21.70;81.03;100874.84;8269388;28;20491;-64
2023/09/26 18:25:49;;;;;;;9.07;3.22;;;;;;;21.43;82.95;100889.50;8265730;28;20065;-63
2023/09/26 18:29:49;;;;;;;8.18;3.05;;;;;;;21.25;83.68;100887.25;8266464;28;20126;-63
2023/09/26 18:33:50;;;;;;;10.60;3.40;;;;;;;21.22;84.33;100889.56;8265793;28;20038;-63
2023/09/26 18:37:50;;;;;;;10.75;3.60;;;;;;;21.17;84.98;100905.81;8268767;28;20048;-63
2023/09/26 18:41:51;;;;;;;7.28;3.75;;;;;;;21.21;84.96;100901.63;8268768;28;20107;-63
2023/09/26 18:45:51;;;;;;;6.30;2.72;;;;;;;21.16;85.81;100901.34;8266483;28;20045;-61
2023/09/26 18:49:52;;;;;;;12.27;3.22;;;;;;;20.87;87.71;100898.75;8269231;28;20764;-60